Time;durP1;ratioP1;P1;durP2;ratioP2;P2;SDS_P1;SDS_P2;PMS_P1;PMS_P2;Temp;Humidity;BMP_temperature;BMP_pressure;BME280_temperature;BME280_humidity;BME280_pressure;Samples;Min_cycle;Max_cycle;Signal;HPM_P1;HPM_P2
2022/10/28 00:01:02;;;;;;;1.10;1.10;;;;;;;;;;5115434;28;20206;-87
2022/10/28 00:03:32;;;;;;;0.30;0.30;;;;;;;;;;5115790;28;20231;-87
2022/10/28 00:06:04;;;;;;;0.33;0.33;;;;;;;;;;5115533;28;20295;-88
2022/10/28 00:08:32;;;;;;;1.00;1.00;;;;;;;;;;5102900;28;20240;-87
2022/10/28 00:11:05;;;;;;;0.50;0.50;;;;;;;;;;5115297;28;20200;-87
2022/10/28 00:13:34;;;;;;;0.60;0.60;;;;;;;;;;5113596;28;20196;-87
2022/10/28 00:16:06;;;;;;;1.07;1.07;;;;;;;;;;5115503;28;20192;-87
2022/10/28 00:18:36;;;;;;;3.13;2.93;;;;;;;;;;5099203;28;20204;-87
2022/10/28 00:21:05;;;;;;;1.83;1.80;;;;;;;;;;5094565;28;20307;-87
2022/10/28 00:23:34;;;;;;;6.27;5.93;;;;;;;;;;5112203;28;20194;-87
2022/10/28 00:26:07;;;;;;;0.50;0.50;;;;;;;;;;5114565;28;20202;-87
2022/10/28 00:28:35;;;;;;;0.80;0.80;;;;;;;;;;5115589;28;20191;-87
2022/10/28 00:31:05;;;;;;;5.83;3.03;;;;;;;;;;5114739;28;20240;-87
2022/10/28 00:33:33;;;;;;;1.40;1.30;;;;;;;;;;5114465;28;20200;-87
2022/10/28 00:36:10;;;;;;;1.73;1.63;;;;;;;;;;5114610;28;20200;-87
2022/10/28 00:38:39;;;;;;;0.50;0.50;;;;;;;;;;5103285;28;20204;-88
2022/10/28 00:41:08;;;;;;;0.60;0.60;;;;;;;;;;5111734;28;20196;-88
2022/10/28 00:43:38;;;;;;;14.10;5.63;;;;;;;;;;5114570;28;20203;-87
2022/10/28 00:46:08;;;;;;;4.03;3.47;;;;;;;;;;5100834;28;20201;-88
2022/10/28 00:48:40;;;;;;;11.37;5.93;;;;;;;;;;5101884;28;20220;-87
2022/10/28 00:51:09;;;;;;;12.13;9.27;;;;;;;;;;5114774;28;20206;-87
2022/10/28 00:53:40;;;;;;;8.87;6.57;;;;;;;;;;5114665;28;20193;-87
2022/10/28 00:56:09;;;;;;;7.80;3.73;;;;;;;;;;5114420;28;20228;-88
2022/10/28 00:58:37;;;;;;;11.40;7.30;;;;;;;;;;5115036;28;20212;-87
2022/10/28 01:01:06;;;;;;;12.10;7.70;;;;;;;;;;5114282;28;20204;-88
2022/10/28 01:03:36;;;;;;;14.90;8.50;;;;;;;;;;5111671;28;20233;-87
2022/10/28 01:06:05;;;;;;;8.00;5.70;;;;;;;;;;5105568;28;20232;-87
2022/10/28 01:08:33;;;;;;;17.03;9.33;;;;;;;;;;5113965;28;20258;-87
2022/10/28 01:11:17;;;;;;;13.73;8.83;;;;;;;;;;5113875;28;20234;-87
2022/10/28 01:13:55;;;;;;;16.13;9.80;;;;;;;;;;5113196;28;20199;-87
2022/10/28 01:16:30;;;;;;;10.63;6.00;;;;;;;;;;5113772;28;20206;-88
2022/10/28 01:19:06;;;;;;;9.30;6.13;;;;;;;;;;5113880;28;20198;-88
2022/10/28 01:22:02;;;;;;;15.33;8.50;;;;;;;;;;5113513;28;20252;-87
2022/10/28 01:24:37;;;;;;;14.60;8.97;;;;;;;;;;5102209;28;20267;-87
2022/10/28 01:27:30;;;;;;;13.93;9.87;;;;;;;;;;5113841;28;20193;-87
2022/10/28 01:30:11;;;;;;;15.73;10.67;;;;;;;;;;5094210;28;20205;-88
2022/10/28 01:32:46;;;;;;;11.67;8.67;;;;;;;;;;5114729;28;20209;-87
2022/10/28 01:35:18;;;;;;;14.43;7.23;;;;;;;;;;5113538;28;20198;-87
2022/10/28 01:37:49;;;;;;;14.63;8.73;;;;;;;;;;5113931;28;20205;-87
2022/10/28 01:40:21;;;;;;;8.60;6.67;;;;;;;;;;5113719;28;20248;-87
2022/10/28 01:42:54;;;;;;;5.40;4.83;;;;;;;;;;5113645;28;20223;-88
2022/10/28 01:45:26;;;;;;;5.47;2.50;;;;;;;;;;5113955;28;20207;-87
2022/10/28 01:47:59;;;;;;;11.97;6.10;;;;;;;;;;5113664;28;20199;-88
2022/10/28 01:50:31;;;;;;;8.63;6.20;;;;;;;;;;5113471;28;20225;-87
2022/10/28 01:53:02;;;;;;;6.57;5.10;;;;;;;;;;5112848;28;20201;-87
2022/10/28 01:55:34;;;;;;;6.60;4.10;;;;;;;;;;5113468;28;20305;-88
2022/10/28 01:58:04;;;;;;;14.47;9.17;;;;;;;;;;5112830;28;20196;-87
2022/10/28 02:00:33;;;;;;;9.13;7.27;;;;;;;;;;5113324;28;20227;-88
2022/10/28 02:03:03;;;;;;;12.67;8.20;;;;;;;;;;5112409;28;20302;-88
2022/10/28 02:05:39;;;;;;;4.20;2.90;;;;;;;;;;5114147;28;20206;-87
2022/10/28 02:08:17;;;;;;;15.37;3.00;;;;;;;;;;5112870;28;20257;-87
2022/10/28 02:10:57;;;;;;;12.63;7.30;;;;;;;;;;5112956;28;20256;-88
2022/10/28 02:13:38;;;;;;;12.70;9.50;;;;;;;;;;5113004;28;20221;-87
2022/10/28 02:16:11;;;;;;;19.60;9.00;;;;;;;;;;5113072;28;20205;-88
2022/10/28 02:18:45;;;;;;;15.80;10.40;;;;;;;;;;5112688;28;20259;-87
2022/10/28 02:21:18;;;;;;;14.50;7.63;;;;;;;;;;5113019;28;20227;-87
2022/10/28 02:23:48;;;;;;;15.00;9.33;;;;;;;;;;5110126;28;20210;-87
2022/10/28 02:26:21;;;;;;;16.70;10.40;;;;;;;;;;5102646;28;20206;-87
2022/10/28 02:28:55;;;;;;;15.27;8.97;;;;;;;;;;5112694;28;20199;-87
2022/10/28 02:31:25;;;;;;;16.90;10.33;;;;;;;;;;5113025;28;20197;-87
2022/10/28 02:33:57;;;;;;;15.07;10.07;;;;;;;;;;5112518;28;20194;-87
2022/10/28 02:36:27;;;;;;;14.90;9.40;;;;;;;;;;5112866;28;20205;-87
2022/10/28 02:38:57;;;;;;;14.43;8.00;;;;;;;;;;5112803;28;20200;-87
2022/10/28 02:41:28;;;;;;;12.17;9.53;;;;;;;;;;5112164;28;20206;-87
2022/10/28 02:43:58;;;;;;;13.60;9.60;;;;;;;;;;5112648;28;20238;-87
2022/10/28 02:46:27;;;;;;;14.33;8.97;;;;;;;;;;5111705;28;20206;-87
2022/10/28 02:48:59;;;;;;;18.20;8.23;;;;;;;;;;5112902;28;20227;-88
2022/10/28 02:51:30;;;;;;;11.37;7.63;;;;;;;;;;5114801;28;20206;-88
2022/10/28 02:54:01;;;;;;;11.60;7.80;;;;;;;;;;5117773;28;20264;-88
2022/10/28 02:56:30;;;;;;;24.80;9.50;;;;;;;;;;5111697;28;20226;-88
2022/10/28 02:58:59;;;;;;;14.27;9.13;;;;;;;;;;5108599;28;20202;-88
2022/10/28 03:01:27;;;;;;;14.80;10.53;;;;;;;;;;5116283;28;20205;-89
2022/10/28 03:03:57;;;;;;;8.67;6.27;;;;;;;;;;5116181;28;20227;-88
2022/10/28 03:06:26;;;;;;;13.93;9.73;;;;;;;;;;5116337;28;20208;-88
2022/10/28 03:08:54;;;;;;;16.37;11.23;;;;;;;;;;5116047;28;20257;-88
2022/10/28 03:11:22;;;;;;;17.03;10.40;;;;;;;;;;5104021;28;20206;-88
2022/10/28 03:13:51;;;;;;;16.33;9.17;;;;;;;;;;5115972;28;20223;-89
2022/10/28 03:16:19;;;;;;;16.57;10.70;;;;;;;;;;5116551;28;20197;-88
2022/10/28 03:18:49;;;;;;;15.23;11.03;;;;;;;;;;5116175;28;20246;-89
2022/10/28 03:21:19;;;;;;;16.47;12.63;;;;;;;;;;5116204;28;20264;-88
2022/10/28 03:23:47;;;;;;;15.17;10.30;;;;;;;;;;5115681;28;20232;-88
2022/10/28 03:26:16;;;;;;;14.90;11.53;;;;;;;;;;5117165;28;20201;-88
2022/10/28 03:28:44;;;;;;;12.03;7.17;;;;;;;;;;5115852;28;20216;-89
2022/10/28 03:31:14;;;;;;;15.40;8.77;;;;;;;;;;5115932;28;20197;-89
2022/10/28 03:33:42;;;;;;;15.50;11.43;;;;;;;;;;5115881;28;20215;-89
2022/10/28 03:36:10;;;;;;;20.23;11.23;;;;;;;;;;5117254;28;20208;-88
2022/10/28 03:38:40;;;;;;;16.47;10.70;;;;;;;;;;5115632;28;20196;-89
2022/10/28 03:41:09;;;;;;;15.53;10.77;;;;;;;;;;5116073;28;20203;-89
2022/10/28 03:43:37;;;;;;;12.40;10.40;;;;;;;;;;5115527;28;20239;-89
2022/10/28 03:46:06;;;;;;;14.57;9.73;;;;;;;;;;5115508;28;20201;-89
2022/10/28 03:48:34;;;;;;;18.27;11.83;;;;;;;;;;5115893;28;20204;-88
2022/10/28 03:51:02;;;;;;;17.53;11.20;;;;;;;;;;5116650;28;20196;-89
2022/10/28 03:53:31;;;;;;;17.40;9.57;;;;;;;;;;5116521;28;20250;-89
2022/10/28 03:56:01;;;;;;;9.13;5.40;;;;;;;;;;5115430;28;20201;-88
2022/10/28 03:58:30;;;;;;;12.37;7.47;;;;;;;;;;5099563;28;20202;-89
2022/10/28 04:00:58;;;;;;;8.53;5.03;;;;;;;;;;5109585;28;20205;-88
2022/10/28 04:03:27;;;;;;;15.87;9.17;;;;;;;;;;5113943;28;20308;-89
2022/10/28 04:05:57;;;;;;;9.30;4.00;;;;;;;;;;5115312;28;20280;-89
2022/10/28 04:08:27;;;;;;;9.40;5.87;;;;;;;;;;5115512;28;20221;-91
2022/10/28 04:10:56;;;;;;;15.30;9.73;;;;;;;;;;5115310;28;20274;-91
2022/10/28 04:13:26;;;;;;;19.70;9.07;;;;;;;;;;5115191;28;20194;-90
2022/10/28 04:15:56;;;;;;;12.03;8.07;;;;;;;;;;5115246;28;20227;-90
2022/10/28 04:18:27;;;;;;;19.83;10.77;;;;;;;;;;5114691;28;20200;-89
2022/10/28 04:20:56;;;;;;;15.07;10.50;;;;;;;;;;5115411;28;20206;-91
2022/10/28 04:23:24;;;;;;;10.70;7.10;;;;;;;;;;5114942;28;20217;-90
2022/10/28 04:25:53;;;;;;;12.73;8.47;;;;;;;;;;5114571;28;20261;-91
2022/10/28 04:28:25;;;;;;;14.43;7.83;;;;;;;;;;5115894;28;20291;-90
2022/10/28 04:30:57;;;;;;;16.47;11.10;;;;;;;;;;5099130;28;20197;-90
2022/10/28 04:33:26;;;;;;;13.77;8.73;;;;;;;;;;5109703;28;20230;-90
2022/10/28 04:35:54;;;;;;;19.77;12.90;;;;;;;;;;5115121;28;20214;-90
2022/10/28 04:38:27;;;;;;;19.10;9.73;;;;;;;;;;5116041;28;20261;-91
2022/10/28 04:40:55;;;;;;;15.53;9.73;;;;;;;;;;5114972;28;20224;-90
2022/10/28 04:43:26;;;;;;;11.50;8.80;;;;;;;;;;5114434;28;20189;-90
2022/10/28 04:46:09;;;;;;;15.47;8.13;;;;;;;;;;5114479;28;20229;-92
2022/10/28 04:48:49;;;;;;;12.17;8.43;;;;;;;;;;5108918;28;20201;-89
2022/10/28 04:51:18;;;;;;;17.83;11.33;;;;;;;;;;5112680;28;20250;-89
2022/10/28 04:53:54;;;;;;;9.90;7.60;;;;;;;;;;5114836;28;20200;-90
2022/10/28 04:56:22;;;;;;;15.90;10.53;;;;;;;;;;5114503;28;20200;-89
2022/10/28 04:58:53;;;;;;;8.70;5.87;;;;;;;;;;5114617;28;20208;-90
2022/10/28 05:01:25;;;;;;;15.60;9.27;;;;;;;;;;5114464;28;20208;-89
2022/10/28 05:03:56;;;;;;;10.37;7.37;;;;;;;;;;5113834;28;20251;-90
2022/10/28 05:06:24;;;;;;;21.17;10.33;;;;;;;;;;5114220;28;20214;-90
2022/10/28 05:08:56;;;;;;;14.50;9.73;;;;;;;;;;5114011;28;20236;-89
2022/10/28 05:11:40;;;;;;;15.07;9.93;;;;;;;;;;5114261;28;20266;-90
2022/10/28 05:14:10;;;;;;;15.83;8.33;;;;;;;;;;5110988;28;20221;-89
2022/10/28 05:16:46;;;;;;;14.60;10.00;;;;;;;;;;5104528;28;20204;-89
2022/10/28 05:19:23;;;;;;;19.13;6.13;;;;;;;;;;5113821;28;20205;-89
2022/10/28 05:21:57;;;;;;;11.53;8.63;;;;;;;;;;5114004;28;20189;-89
2022/10/28 05:24:40;;;;;;;18.30;11.47;;;;;;;;;;5113530;28;20223;-89
2022/10/28 05:27:16;;;;;;;20.13;8.67;;;;;;;;;;5113622;28;20351;-90
2022/10/28 05:29:56;;;;;;;14.37;8.50;;;;;;;;;;5113953;28;20265;-89
2022/10/28 05:32:30;;;;;;;16.37;10.03;;;;;;;;;;5115154;28;20253;-89
2022/10/28 05:34:59;;;;;;;19.23;10.70;;;;;;;;;;5113635;28;20207;-90
2022/10/28 05:37:27;;;;;;;11.20;7.13;;;;;;;;;;5114324;28;20196;-88
2022/10/28 05:40:10;;;;;;;12.30;9.17;;;;;;;;;;5113436;28;20196;-89
2022/10/28 05:45:32;;;;;;;13.60;9.17;;;;;;;;;;5101618;28;20212;-90
2022/10/28 05:48:15;;;;;;;16.13;10.97;;;;;;;;;;5113583;28;20277;-90
2022/10/28 05:53:40;;;;;;;12.10;8.77;;;;;;;;;;5116293;27;20266;-88
2022/10/28 05:56:21;;;;;;;18.27;10.50;;;;;;;;;;5113212;28;20231;-88
2022/10/28 06:02:37;;;;;;;17.77;11.07;;;;;;;;;;5113170;28;20196;-88
2022/10/28 06:05:26;;;;;;;9.63;6.67;;;;;;;;;;5101302;28;20257;-88
2022/10/28 06:07:55;;;;;;;15.47;9.73;;;;;;;;;;5112557;28;20200;-89
2022/10/28 06:10:31;;;;;;;18.07;8.70;;;;;;;;;;5112964;28;20204;-88
2022/10/28 06:13:13;;;;;;;14.40;9.70;;;;;;;;;;5113283;28;20288;-91
2022/10/28 06:18:45;;;;;;;15.77;10.67;;;;;;;;;;5095463;28;20209;-91
2022/10/28 06:21:34;;;;;;;15.93;8.53;;;;;;;;;;5102455;28;20196;-90
2022/10/28 06:27:17;;;;;;;12.53;8.73;;;;;;;;;;5113092;28;20250;-91
2022/10/28 06:33:07;;;;;;;11.10;4.87;;;;;;;;;;5113904;28;20196;-91
2022/10/28 06:35:51;;;;;;;2.20;1.77;;;;;;;;;;5101155;28;20197;-92
2022/10/28 06:39:39;;;;;;;5.90;4.13;;;;;;;;;;5052457;28;20298;-91
2022/10/28 06:46:10;;;;;;;6.43;5.13;;;;;;;;;;4974024;28;20216;-91
2022/10/28 06:49:25;;;;;;;16.10;8.53;;;;;;;;;;4996403;28;20262;-91
2022/10/28 06:52:31;;;;;;;9.57;6.30;;;;;;;;;;4985399;28;20306;-93
2022/10/28 06:55:12;;;;;;;16.23;10.67;;;;;;;;;;5038622;28;20203;-93
2022/10/28 07:05:03;;;;;;;11.00;6.67;;;;;;;;;;4787341;29;20229;-91
2022/10/28 07:07:37;;;;;;;14.40;9.57;;;;;;;;;;4852572;29;20374;-91
2022/10/28 07:10:09;;;;;;;12.93;8.20;;;;;;;;;;4919590;28;20265;-92
2022/10/28 08:34:01;;;;;;;15.35;7.70;;;;;;;;;;5446896;22;18908952;-92
2022/10/28 08:37:48;;;;;;;;;;;;;;;;;;;;;
2022/10/28 08:41:02;;;;;;;13.47;6.60;;;;;;;;;;6227312;23;20265;-92
2022/10/28 08:44:21;;;;;;;12.40;6.10;;;;;;;;;;6226054;23;20176;-89
2022/10/28 08:50:19;;;;;;;23.40;7.03;;;;;;;;;;6184364;23;20176;-89
2022/10/28 08:53:15;;;;;;;9.00;5.13;;;;;;;;;;6222338;23;20175;-89
2022/10/28 08:58:57;;;;;;;9.90;6.60;;;;;;;;;;6212075;23;20179;-90
2022/10/28 09:04:49;;;;;;;5.13;3.23;;;;;;;;;;6194103;23;20192;-89
2022/10/28 09:07:20;;;;;;;11.27;7.37;;;;;;;;;;6192388;23;20257;-89
2022/10/28 09:10:09;;;;;;;12.53;8.27;;;;;;;;;;6192846;23;20176;-89
2022/10/28 09:12:55;;;;;;;10.03;7.20;;;;;;;;;;6192235;23;20180;-90
2022/10/28 09:15:37;;;;;;;10.03;6.33;;;;;;;;;;6192708;23;20186;-89
2022/10/28 09:18:23;;;;;;;8.03;5.07;;;;;;;;;;6187354;23;20187;-89
2022/10/28 09:21:10;;;;;;;10.57;7.97;;;;;;;;;;6185449;23;20182;-89
2022/10/28 09:23:56;;;;;;;13.23;7.47;;;;;;;;;;6185379;23;20282;-89
2022/10/28 09:26:52;;;;;;;13.87;8.00;;;;;;;;;;6185300;23;20197;-89
2022/10/28 09:29:32;;;;;;;11.57;7.57;;;;;;;;;;6185470;23;20189;-89
2022/10/28 09:32:09;;;;;;;13.93;6.80;;;;;;;;;;6185223;23;20176;-89
2022/10/28 09:34:43;;;;;;;14.83;5.40;;;;;;;;;;6185413;23;20232;-89
2022/10/28 09:37:15;;;;;;;13.27;8.10;;;;;;;;;;6185708;23;20167;-88
2022/10/28 09:39:54;;;;;;;16.07;8.20;;;;;;;;;;6185453;23;20178;-88
2022/10/28 09:42:27;;;;;;;12.83;8.20;;;;;;;;;;6185413;23;20261;-89
2022/10/28 09:45:00;;;;;;;14.13;7.00;;;;;;;;;;6185684;23;20202;-89
2022/10/28 09:47:45;;;;;;;14.90;8.90;;;;;;;;;;6185087;23;20197;-89
2022/10/28 09:53:27;;;;;;;10.50;7.63;;;;;;;;;;6183477;23;20192;-89
2022/10/28 09:56:02;;;;;;;12.70;7.20;;;;;;;;;;6185480;23;20197;-89
2022/10/28 09:58:45;;;;;;;7.57;5.17;;;;;;;;;;6185025;23;20201;-89
2022/10/28 10:01:19;;;;;;;11.57;7.13;;;;;;;;;;6184856;23;20193;-89
2022/10/28 10:03:49;;;;;;;12.80;7.00;;;;;;;;;;6185532;23;20280;-89
2022/10/28 10:06:24;;;;;;;11.60;7.53;;;;;;;;;;6185318;23;20193;-88
2022/10/28 10:08:56;;;;;;;9.27;6.87;;;;;;;;;;6185336;23;20197;-89
2022/10/28 10:11:45;;;;;;;8.20;4.47;;;;;;;;;;6183877;23;20205;-88
2022/10/28 10:14:20;;;;;;;10.17;7.20;;;;;;;;;;6185344;23;20174;-89
2022/10/28 10:16:56;;;;;;;14.73;6.67;;;;;;;;;;6185114;23;20170;-89
2022/10/28 10:19:29;;;;;;;10.73;6.73;;;;;;;;;;6185043;23;20216;-89
2022/10/28 10:21:59;;;;;;;10.87;7.00;;;;;;;;;;6185035;23;20185;-89
2022/10/28 10:24:49;;;;;;;8.33;4.93;;;;;;;;;;6185324;23;20178;-89
2022/10/28 10:27:24;;;;;;;12.53;7.57;;;;;;;;;;6185039;23;20224;-87
2022/10/28 10:29:54;;;;;;;5.20;3.63;;;;;;;;;;6184717;23;20189;-87
2022/10/28 10:32:29;;;;;;;12.97;5.60;;;;;;;;;;6185782;23;20175;-87
2022/10/28 10:35:08;;;;;;;12.40;6.53;;;;;;;;;;6184620;23;20183;-85
2022/10/28 10:37:37;;;;;;;16.23;7.23;;;;;;;;;;6185106;23;20181;-83
2022/10/28 10:40:08;;;;;;;10.43;5.77;;;;;;;;;;6184667;23;20197;-83
2022/10/28 10:42:37;;;;;;;14.53;5.63;;;;;;;;;;6184985;23;20183;-83
2022/10/28 10:45:26;;;;;;;13.83;7.17;;;;;;;;;;6184662;23;20237;-84
2022/10/28 10:48:13;;;;;;;11.40;6.43;;;;;;;;;;6184511;23;20198;-83
2022/10/28 10:50:43;;;;;;;11.23;6.40;;;;;;;;;;6186207;23;20179;-84
2022/10/28 10:53:19;;;;;;;16.07;8.37;;;;;;;;;;6184393;23;20181;-83
2022/10/28 10:55:50;;;;;;;17.17;7.17;;;;;;;;;;6185890;23;20198;-83
2022/10/28 10:58:20;;;;;;;6.00;3.67;;;;;;;;;;6184273;23;20175;-84
2022/10/28 11:00:50;;;;;;;12.10;6.63;;;;;;;;;;6184253;23;20179;-84
2022/10/28 11:03:21;;;;;;;12.10;6.93;;;;;;;;;;6184782;23;20232;-83
2022/10/28 11:05:52;;;;;;;13.07;8.20;;;;;;;;;;6185018;23;20171;-84
2022/10/28 11:08:43;;;;;;;9.07;6.50;;;;;;;;;;6185967;23;20281;-84
2022/10/28 11:11:14;;;;;;;13.67;6.83;;;;;;;;;;6184599;23;20175;-83
2022/10/28 11:13:43;;;;;;;6.43;4.43;;;;;;;;;;6184661;23;20182;-84
2022/10/28 11:16:20;;;;;;;13.63;6.00;;;;;;;;;;6184622;23;20203;-84
2022/10/28 11:18:50;;;;;;;10.87;6.33;;;;;;;;;;6184464;23;20177;-83
2022/10/28 11:21:28;;;;;;;8.57;6.03;;;;;;;;;;6184725;23;20175;-85
2022/10/28 11:24:06;;;;;;;6.00;3.13;;;;;;;;;;6184545;23;20178;-85
2022/10/28 11:26:38;;;;;;;9.67;5.83;;;;;;;;;;6184633;23;20266;-85
2022/10/28 11:29:09;;;;;;;14.30;6.07;;;;;;;;;;6184290;23;20185;-85
2022/10/28 11:31:50;;;;;;;14.17;6.57;;;;;;;;;;6183966;23;20183;-86
2022/10/28 11:34:29;;;;;;;10.63;5.83;;;;;;;;;;6184249;23;20206;-88
2022/10/28 11:37:08;;;;;;;13.37;6.23;;;;;;;;;;6184784;23;20175;-88
2022/10/28 11:39:42;;;;;;;9.60;3.00;;;;;;;;;;6184541;23;20171;-89
2022/10/28 11:42:20;;;;;;;7.33;4.80;;;;;;;;;;6184570;23;20217;-89
2022/10/28 11:44:53;;;;;;;13.53;4.97;;;;;;;;;;6184404;23;20206;-89
2022/10/28 11:47:46;;;;;;;12.63;3.90;;;;;;;;;;6184538;23;20203;-89
2022/10/28 11:50:22;;;;;;;4.47;2.93;;;;;;;;;;6156563;23;20174;-89
2022/10/28 11:53:03;;;;;;;9.83;4.47;;;;;;;;;;6184204;23;20259;-89
2022/10/28 11:55:35;;;;;;;7.40;3.30;;;;;;;;;;6184061;23;20207;-88
2022/10/28 11:58:13;;;;;;;6.63;2.43;;;;;;;;;;6183755;23;20272;-89
2022/10/28 12:00:46;;;;;;;5.10;3.43;;;;;;;;;;6184354;23;20232;-88
2022/10/28 12:03:29;;;;;;;7.17;3.03;;;;;;;;;;6184592;23;20193;-88
2022/10/28 12:06:04;;;;;;;1.50;1.37;;;;;;;;;;6184391;23;20181;-88
2022/10/28 12:08:39;;;;;;;2.17;1.93;;;;;;;;;;6184226;23;20201;-88
2022/10/28 12:11:13;;;;;;;2.17;1.90;;;;;;;;;;6184106;23;20216;-89
2022/10/28 12:13:46;;;;;;;5.43;2.60;;;;;;;;;;6184046;23;20261;-88
2022/10/28 12:16:17;;;;;;;11.13;4.40;;;;;;;;;;6184545;23;20174;-88
2022/10/28 12:18:50;;;;;;;10.70;4.93;;;;;;;;;;6184232;23;20183;-88
2022/10/28 12:21:22;;;;;;;14.03;4.63;;;;;;;;;;6184512;23;20268;-88
2022/10/28 12:23:58;;;;;;;7.30;4.13;;;;;;;;;;6184363;23;20183;-88
2022/10/28 12:26:32;;;;;;;8.73;3.53;;;;;;;;;;6184186;23;20174;-88
2022/10/28 12:29:02;;;;;;;6.30;3.50;;;;;;;;;;6184046;23;20214;-88
2022/10/28 12:31:35;;;;;;;5.80;2.67;;;;;;;;;;6184333;23;20222;-88
2022/10/28 12:34:10;;;;;;;4.30;2.70;;;;;;;;;;6183888;23;20213;-88
2022/10/28 12:36:42;;;;;;;2.83;2.50;;;;;;;;;;6184282;23;20209;-88
2022/10/28 12:39:15;;;;;;;15.07;3.77;;;;;;;;;;6184084;23;20198;-88
2022/10/28 12:41:47;;;;;;;5.17;2.93;;;;;;;;;;6184387;23;20182;-89
2022/10/28 12:44:19;;;;;;;10.50;3.80;;;;;;;;;;6184017;23;20294;-88
2022/10/28 12:46:55;;;;;;;3.17;2.10;;;;;;;;;;6184421;23;20260;-88
2022/10/28 12:49:28;;;;;;;6.33;3.73;;;;;;;;;;6184126;23;20175;-88
2022/10/28 12:52:03;;;;;;;4.87;3.20;;;;;;;;;;6184228;23;20185;-88
2022/10/28 12:54:38;;;;;;;4.80;3.30;;;;;;;;;;6185908;23;20205;-88
2022/10/28 12:57:11;;;;;;;7.87;3.03;;;;;;;;;;6186139;23;20188;-88
2022/10/28 12:59:43;;;;;;;1.23;1.20;;;;;;;;;;6185928;23;20275;-88
2022/10/28 13:02:16;;;;;;;5.37;3.03;;;;;;;;;;6185985;23;20179;-88
2022/10/28 13:04:45;;;;;;;7.97;2.83;;;;;;;;;;6185531;23;20196;-89
2022/10/28 13:07:22;;;;;;;4.30;3.03;;;;;;;;;;6186074;23;20267;-88
2022/10/28 13:10:01;;;;;;;7.73;3.17;;;;;;;;;;6186061;23;20187;-88
2022/10/28 13:12:52;;;;;;;3.23;2.93;;;;;;;;;;6185959;23;20276;-89
2022/10/28 13:15:39;;;;;;;8.67;4.67;;;;;;;;;;6185826;23;20248;-88
2022/10/28 13:18:28;;;;;;;6.23;3.70;;;;;;;;;;6185629;23;20276;-88
2022/10/28 13:21:04;;;;;;;4.97;2.47;;;;;;;;;;6185926;23;20237;-88
2022/10/28 13:23:39;;;;;;;5.23;2.23;;;;;;;;;;6185937;23;20182;-88
2022/10/28 13:26:17;;;;;;;3.73;3.33;;;;;;;;;;6185797;23;20180;-88
2022/10/28 13:28:51;;;;;;;6.07;2.87;;;;;;;;;;6185562;23;20176;-88
2022/10/28 13:31:20;;;;;;;7.13;2.13;;;;;;;;;;6185807;23;20175;-88
2022/10/28 13:33:54;;;;;;;6.23;3.80;;;;;;;;;;6185018;23;20210;-88
2022/10/28 13:36:34;;;;;;;4.47;4.20;;;;;;;;;;6185728;23;20244;-88
2022/10/28 13:39:04;;;;;;;17.53;4.00;;;;;;;;;;6185620;23;20195;-88
2022/10/28 13:41:36;;;;;;;7.30;4.67;;;;;;;;;;6185684;23;20178;-89
2022/10/28 13:44:23;;;;;;;9.77;3.23;;;;;;;;;;6185511;23;20189;-87
2022/10/28 13:47:02;;;;;;;3.60;3.30;;;;;;;;;;6185725;23;20188;-87
2022/10/28 13:49:31;;;;;;;7.73;2.53;;;;;;;;;;6184715;23;20190;-88
2022/10/28 13:52:04;;;;;;;3.07;2.17;;;;;;;;;;6185054;23;20170;-87
2022/10/28 13:54:33;;;;;;;2.33;2.07;;;;;;;;;;6185622;23;20175;-87
2022/10/28 13:57:10;;;;;;;2.73;2.17;;;;;;;;;;6185594;23;20177;-87
2022/10/28 13:59:48;;;;;;;11.23;5.00;;;;;;;;;;6185266;23;20218;-88
2022/10/28 14:02:19;;;;;;;3.67;2.23;;;;;;;;;;6185608;23;20199;-88
2022/10/28 14:05:04;;;;;;;12.47;3.57;;;;;;;;;;6185182;23;20196;-88
2022/10/28 14:07:34;;;;;;;6.87;3.67;;;;;;;;;;6185298;23;20183;-88
2022/10/28 14:10:15;;;;;;;5.63;2.57;;;;;;;;;;6185427;23;20198;-87
2022/10/28 14:12:51;;;;;;;8.83;3.63;;;;;;;;;;6185220;23;20274;-87
2022/10/28 14:15:28;;;;;;;11.10;3.83;;;;;;;;;;6185341;23;20187;-87
2022/10/28 14:17:59;;;;;;;3.60;1.97;;;;;;;;;;6185092;23;20251;-87
2022/10/28 14:20:57;;;;;;;20.53;3.87;;;;;;;;;;6185204;23;20173;-87
2022/10/28 14:23:46;;;;;;;2.30;2.07;;;;;;;;;;6185311;23;20177;-88
2022/10/28 14:26:17;;;;;;;8.13;4.87;;;;;;;;;;6168404;23;20201;-88
2022/10/28 14:28:54;;;;;;;5.07;2.23;;;;;;;;;;6185146;23;20182;-88
2022/10/28 14:31:43;;;;;;;5.67;2.63;;;;;;;;;;6185085;23;20182;-88
2022/10/28 14:34:34;;;;;;;10.03;2.40;;;;;;;;;;6184905;23;20210;-88
2022/10/28 14:37:08;;;;;;;11.10;3.97;;;;;;;;;;6184708;23;20179;-88
2022/10/28 14:39:43;;;;;;;9.37;3.43;;;;;;;;;;6185225;23;20203;-88
2022/10/28 14:42:24;;;;;;;5.17;3.00;;;;;;;;;;6185143;23;20178;-89
2022/10/28 14:45:03;;;;;;;6.43;2.50;;;;;;;;;;6184956;23;20219;-89
2022/10/28 14:47:42;;;;;;;1.90;1.67;;;;;;;;;;6185027;23;20246;-89
2022/10/28 14:50:17;;;;;;;6.03;2.97;;;;;;;;;;6185131;23;20209;-89
2022/10/28 14:52:47;;;;;;;14.80;4.90;;;;;;;;;;6184638;23;20269;-88
2022/10/28 14:55:21;;;;;;;10.37;3.07;;;;;;;;;;6184863;23;20183;-89
2022/10/28 14:57:50;;;;;;;3.90;2.27;;;;;;;;;;6184908;23;20185;-88
2022/10/28 15:00:22;;;;;;;7.17;3.17;;;;;;;;;;6184431;23;20201;-88
2022/10/28 15:02:51;;;;;;;2.13;1.70;;;;;;;;;;6184479;23;20182;-88
2022/10/28 15:05:20;;;;;;;2.93;2.03;;;;;;;;;;6184998;23;20186;-88
2022/10/28 15:07:49;;;;;;;4.20;2.40;;;;;;;;;;6184672;23;20237;-88
2022/10/28 15:10:22;;;;;;;5.07;3.30;;;;;;;;;;6185882;23;20175;-88
2022/10/28 15:12:51;;;;;;;10.07;3.93;;;;;;;;;;6184819;23;20181;-88
2022/10/28 15:15:26;;;;;;;8.43;3.60;;;;;;;;;;6184691;23;20180;-88
2022/10/28 15:17:54;;;;;;;6.30;2.70;;;;;;;;;;6184916;23;20181;-87
2022/10/28 15:20:24;;;;;;;5.57;2.70;;;;;;;;;;6184550;23;20205;-88
2022/10/28 15:22:53;;;;;;;5.07;2.37;;;;;;;;;;6184853;23;20188;-88
2022/10/28 15:25:28;;;;;;;7.57;1.50;;;;;;;;;;6184608;23;20270;-88
2022/10/28 15:27:56;;;;;;;13.27;2.47;;;;;;;;;;6184564;23;20179;-88
2022/10/28 15:30:27;;;;;;;14.53;2.80;;;;;;;;;;6184325;23;20176;-87
2022/10/28 15:33:15;;;;;;;9.03;2.40;;;;;;;;;;6184609;23;20203;-87
2022/10/28 15:35:44;;;;;;;10.17;4.17;;;;;;;;;;6184124;23;20230;-87
2022/10/28 15:38:33;;;;;;;6.47;3.10;;;;;;;;;;6184643;23;20197;-87
2022/10/28 15:41:02;;;;;;;2.33;2.00;;;;;;;;;;6176161;23;20220;-87
2022/10/28 15:43:31;;;;;;;7.87;2.07;;;;;;;;;;6185610;23;20200;-87
2022/10/28 15:46:10;;;;;;;11.67;4.00;;;;;;;;;;6184224;23;20183;-88
2022/10/28 15:48:39;;;;;;;6.23;3.10;;;;;;;;;;6184317;23;20174;-87
2022/10/28 15:51:14;;;;;;;11.53;3.63;;;;;;;;;;6184521;23;20167;-87
2022/10/28 15:53:43;;;;;;;4.67;2.77;;;;;;;;;;6184296;23;20170;-88
2022/10/28 15:56:24;;;;;;;5.43;2.27;;;;;;;;;;6184426;23;20175;-87
2022/10/28 15:59:07;;;;;;;7.90;3.07;;;;;;;;;;6184080;23;20170;-87
2022/10/28 16:01:38;;;;;;;2.63;1.90;;;;;;;;;;6184352;23;20181;-87
2022/10/28 16:04:27;;;;;;;4.83;3.30;;;;;;;;;;6184249;23;20195;-87
2022/10/28 16:06:56;;;;;;;7.63;2.87;;;;;;;;;;6184071;23;20198;-87
2022/10/28 16:09:28;;;;;;;6.57;1.87;;;;;;;;;;6184530;23;20171;-87
2022/10/28 16:11:57;;;;;;;10.17;3.40;;;;;;;;;;6184199;23;20182;-87
2022/10/28 16:14:32;;;;;;;15.70;6.07;;;;;;;;;;6184454;23;20175;-87
2022/10/28 16:17:05;;;;;;;8.07;2.07;;;;;;;;;;6184250;23;20178;-87
2022/10/28 16:19:36;;;;;;;4.13;2.00;;;;;;;;;;6184106;23;20228;-87
2022/10/28 16:22:05;;;;;;;7.83;2.43;;;;;;;;;;6183765;23;20237;-87
2022/10/28 16:24:33;;;;;;;7.03;2.67;;;;;;;;;;6185419;23;20244;-87
2022/10/28 16:27:16;;;;;;;9.67;2.80;;;;;;;;;;6184096;23;20209;-87
2022/10/28 16:29:45;;;;;;;11.13;4.70;;;;;;;;;;6186039;23;20214;-88
2022/10/28 16:32:18;;;;;;;9.50;3.03;;;;;;;;;;6185996;23;20171;-87
2022/10/28 16:34:46;;;;;;;6.47;2.03;;;;;;;;;;6186199;23;20277;-87
2022/10/28 16:37:20;;;;;;;3.43;2.23;;;;;;;;;;6187431;23;20167;-87
2022/10/28 16:39:48;;;;;;;12.90;4.30;;;;;;;;;;6185811;23;20218;-87
2022/10/28 16:42:17;;;;;;;12.87;3.80;;;;;;;;;;6186376;23;20176;-87
2022/10/28 16:44:46;;;;;;;3.60;1.27;;;;;;;;;;6186299;23;20175;-87
2022/10/28 16:47:15;;;;;;;19.57;3.13;;;;;;;;;;6187320;23;20196;-87
2022/10/28 16:49:47;;;;;;;6.57;3.43;;;;;;;;;;6186077;23;20178;-87
2022/10/28 16:52:24;;;;;;;23.93;3.70;;;;;;;;;;6186125;23;20180;-87
2022/10/28 16:54:52;;;;;;;5.47;2.97;;;;;;;;;;6187462;23;20181;-87
2022/10/28 16:57:21;;;;;;;8.97;4.00;;;;;;;;;;6186229;23;20187;-88
2022/10/28 16:59:49;;;;;;;8.80;3.40;;;;;;;;;;6185897;23;20200;-87
2022/10/28 17:02:20;;;;;;;3.80;2.83;;;;;;;;;;6187360;23;20217;-87
2022/10/28 17:04:50;;;;;;;12.27;4.73;;;;;;;;;;6185930;23;20198;-87
2022/10/28 17:07:19;;;;;;;6.00;2.97;;;;;;;;;;6185680;23;20178;-87
2022/10/28 17:09:47;;;;;;;12.90;4.57;;;;;;;;;;6185790;23;20182;-87
2022/10/28 17:12:16;;;;;;;14.60;3.07;;;;;;;;;;6185437;23;20186;-87
2022/10/28 17:14:45;;;;;;;7.43;2.47;;;;;;;;;;6185635;23;20173;-87
2022/10/28 17:17:13;;;;;;;16.70;4.87;;;;;;;;;;6185313;23;20175;-87
2022/10/28 17:19:44;;;;;;;10.63;4.27;;;;;;;;;;6185700;23;20181;-87
2022/10/28 17:22:14;;;;;;;6.40;2.53;;;;;;;;;;6185985;23;20190;-87
2022/10/28 17:24:42;;;;;;;8.30;2.10;;;;;;;;;;6186070;23;20182;-87